Time;durP1;ratioP1;P1;durP2;ratioP2;P2;SDS_P1;SDS_P2;PMS_P1;PMS_P2;Temp;Humidity;BMP_temperature;BMP_pressure;BME280_temperature;BME280_humidity;BME280_pressure;Samples;Min_cycle;Max_cycle;Signal;HPM_P1;HPM_P2
2023/03/20 00:01:49;;;;;;;1.30;1.20;;;;;;;;;;5053901;28;20416;-80
2023/03/20 00:04:15;;;;;;;2.00;1.90;;;;;;;;;;5052390;28;20379;-79
2023/03/20 00:06:41;;;;;;;1.77;1.67;;;;;;;;;;5032700;28;20450;-80
2023/03/20 00:09:07;;;;;;;2.00;1.90;;;;;;;;;;5050587;28;20385;-80
2023/03/20 00:11:35;;;;;;;2.05;1.90;;;;;;;;;;5053799;28;20401;-80
2023/03/20 00:14:05;;;;;;;2.00;1.90;;;;;;;;;;5053868;28;20377;-79
2023/03/20 00:16:32;;;;;;;1.90;1.70;;;;;;;;;;5053760;28;20458;-80
2023/03/20 00:18:58;;;;;;;1.80;1.70;;;;;;;;;;5052827;28;20377;-79
2023/03/20 00:21:25;;;;;;;1.58;1.48;;;;;;;;;;5051146;28;20384;-80
2023/03/20 00:23:51;;;;;;;1.40;1.30;;;;;;;;;;5053144;28;20369;-80
2023/03/20 00:26:18;;;;;;;1.40;1.30;;;;;;;;;;5053784;28;20456;-80
2023/03/20 00:28:47;;;;;;;1.83;1.73;;;;;;;;;;5053527;28;20428;-80
2023/03/20 00:31:30;;;;;;;1.70;1.60;;;;;;;;;;5053736;28;20370;-80
2023/03/20 00:33:58;;;;;;;1.67;1.58;;;;;;;;;;5053466;28;20870;-79
2023/03/20 00:36:24;;;;;;;1.50;1.40;;;;;;;;;;5053638;28;20369;-80
2023/03/20 00:38:50;;;;;;;3.07;1.77;;;;;;;;;;5053751;28;20896;-80
2023/03/20 00:41:19;;;;;;;1.40;1.30;;;;;;;;;;5053323;28;20451;-80
2023/03/20 00:43:47;;;;;;;1.42;1.33;;;;;;;;;;5053614;28;20385;-80
2023/03/20 00:46:13;;;;;;;1.30;1.20;;;;;;;;;;5053157;28;20373;-80
2023/03/20 00:48:41;;;;;;;1.50;1.40;;;;;;;;;;5053250;28;20867;-80
2023/03/20 00:51:07;;;;;;;1.30;1.20;;;;;;;;;;5053270;28;20712;-80
2023/03/20 00:53:33;;;;;;;2.15;1.40;;;;;;;;;;5053298;28;20408;-80
2023/03/20 00:55:59;;;;;;;1.30;1.20;;;;;;;;;;5052760;28;20418;-80
2023/03/20 00:58:25;;;;;;;1.23;1.13;;;;;;;;;;5053159;28;20381;-80
2023/03/20 01:00:51;;;;;;;1.48;1.27;;;;;;;;;;5053047;28;20392;-80
2023/03/20 01:03:19;;;;;;;1.20;1.10;;;;;;;;;;5053102;28;20405;-80
2023/03/20 01:05:45;;;;;;;1.27;1.20;;;;;;;;;;5053380;28;20386;-80
2023/03/20 01:08:14;;;;;;;1.00;1.00;;;;;;;;;;5053314;28;20385;-80
2023/03/20 01:10:40;;;;;;;1.30;1.20;;;;;;;;;;5052923;28;20399;-80
2023/03/20 01:13:21;;;;;;;1.00;1.00;;;;;;;;;;5052684;28;20385;-80
2023/03/20 01:15:47;;;;;;;0.85;0.85;;;;;;;;;;5052565;28;20386;-80
2023/03/20 01:18:14;;;;;;;0.90;0.80;;;;;;;;;;5052548;28;20431;-80
2023/03/20 01:20:40;;;;;;;0.73;0.73;;;;;;;;;;5052569;28;20397;-80
2023/03/20 01:23:06;;;;;;;0.80;0.80;;;;;;;;;;5051244;28;20532;-80
2023/03/20 01:25:32;;;;;;;0.80;0.80;;;;;;;;;;5052241;28;20373;-80
2023/03/20 01:27:58;;;;;;;0.90;0.70;;;;;;;;;;5034701;28;20886;-80
2023/03/20 01:30:26;;;;;;;0.80;0.80;;;;;;;;;;5041027;28;20390;-80
2023/03/20 01:32:52;;;;;;;0.88;0.88;;;;;;;;;;5050824;28;20906;-80
2023/03/20 01:35:20;;;;;;;0.80;0.70;;;;;;;;;;5051191;28;20381;-80
2023/03/20 01:37:47;;;;;;;0.97;0.87;;;;;;;;;;5052008;28;20755;-79
2023/03/20 01:40:33;;;;;;;0.80;0.80;;;;;;;;;;5051334;28;20893;-80
2023/03/20 01:43:01;;;;;;;0.90;0.90;;;;;;;;;;5032773;28;20409;-79
2023/03/20 01:45:31;;;;;;;1.02;1.00;;;;;;;;;;5050589;28;20762;-80
2023/03/20 01:47:57;;;;;;;0.80;0.80;;;;;;;;;;5050633;28;20377;-80
2023/03/20 01:50:30;;;;;;;1.23;1.13;;;;;;;;;;5051018;28;20377;-80
2023/03/20 01:53:01;;;;;;;2.50;1.92;;;;;;;;;;5050337;28;20381;-80
2023/03/20 01:55:28;;;;;;;2.40;1.57;;;;;;;;;;5049818;28;20392;-80
2023/03/20 01:57:55;;;;;;;1.38;1.17;;;;;;;;;;5049518;28;20440;-77
2023/03/20 02:00:22;;;;;;;1.30;1.00;;;;;;;;;;5049834;28;20457;-80
2023/03/20 02:02:48;;;;;;;1.13;1.00;;;;;;;;;;5042698;28;20429;-80
2023/03/20 02:05:16;;;;;;;1.58;1.02;;;;;;;;;;5049557;28;20465;-80
2023/03/20 02:07:45;;;;;;;1.30;1.20;;;;;;;;;;5049987;28;20400;-79
2023/03/20 02:10:13;;;;;;;1.05;1.00;;;;;;;;;;5044294;28;20391;-79
2023/03/20 02:12:40;;;;;;;1.00;0.90;;;;;;;;;;5052932;28;20434;-76
2023/03/20 02:15:06;;;;;;;1.90;1.20;;;;;;;;;;5051729;28;20381;-79
2023/03/20 02:17:33;;;;;;;2.55;2.35;;;;;;;;;;5051770;28;20417;-80
2023/03/20 02:20:15;;;;;;;2.50;2.35;;;;;;;;;;5033865;28;20386;-80
2023/03/20 02:23:00;;;;;;;2.10;2.00;;;;;;;;;;5044777;28;20455;-79
2023/03/20 02:25:32;;;;;;;1.83;1.73;;;;;;;;;;5051122;28;20382;-80
2023/03/20 02:28:09;;;;;;;1.50;1.40;;;;;;;;;;5051727;28;20851;-80
2023/03/20 02:30:41;;;;;;;1.60;1.50;;;;;;;;;;5051681;28;20499;-80
2023/03/20 02:33:14;;;;;;;1.50;1.40;;;;;;;;;;5051558;28;20388;-80
2023/03/20 02:35:59;;;;;;;1.05;1.05;;;;;;;;;;5051385;28;20435;-80
2023/03/20 02:38:44;;;;;;;0.90;0.80;;;;;;;;;;5049125;28;20428;-80
2023/03/20 02:41:19;;;;;;;0.63;0.60;;;;;;;;;;5040045;28;20415;-80
2023/03/20 02:44:01;;;;;;;0.65;0.60;;;;;;;;;;5042136;28;20382;-80
2023/03/20 02:46:39;;;;;;;0.85;0.85;;;;;;;;;;5048925;28;20416;-80
2023/03/20 02:49:13;;;;;;;1.00;0.90;;;;;;;;;;5057836;28;20486;-79
2023/03/20 02:51:42;;;;;;;1.58;0.82;;;;;;;;;;5039714;28;20874;-80
2023/03/20 02:54:37;;;;;;;1.50;1.40;;;;;;;;;;5057792;28;20863;-80
2023/03/20 02:57:33;;;;;;;1.70;1.60;;;;;;;;;;5041677;28;20938;-80
2023/03/20 03:00:22;;;;;;;1.60;1.50;;;;;;;;;;5043302;28;20743;-79
2023/03/20 03:02:55;;;;;;;1.50;1.40;;;;;;;;;;5049407;28;20409;-78
2023/03/20 03:05:24;;;;;;;1.58;1.48;;;;;;;;;;5057634;28;20879;-80
2023/03/20 03:07:51;;;;;;;1.95;1.85;;;;;;;;;;5057464;28;20381;-80
2023/03/20 03:10:21;;;;;;;1.70;1.60;;;;;;;;;;5057134;28;20874;-80
2023/03/20 03:12:48;;;;;;;2.30;1.87;;;;;;;;;;5057610;28;20420;-80
2023/03/20 03:15:36;;;;;;;1.50;1.40;;;;;;;;;;5057398;28;20415;-79
2023/03/20 03:18:05;;;;;;;2.47;2.13;;;;;;;;;;5057629;28;20391;-80
2023/03/20 03:20:32;;;;;;;3.50;3.20;;;;;;;;;;5057328;28;20396;-80
2023/03/20 03:22:59;;;;;;;3.10;2.90;;;;;;;;;;5057422;28;20520;-80
2023/03/20 03:25:26;;;;;;;3.85;3.55;;;;;;;;;;5054088;28;20896;-80
2023/03/20 03:28:08;;;;;;;3.63;3.42;;;;;;;;;;5057737;28;20846;-80
2023/03/20 03:30:37;;;;;;;3.55;3.25;;;;;;;;;;5057628;28;20854;-79
2023/03/20 03:33:12;;;;;;;3.72;3.42;;;;;;;;;;5057405;28;20413;-80
2023/03/20 03:35:39;;;;;;;3.87;3.60;;;;;;;;;;5039766;28;20416;-81
2023/03/20 03:38:25;;;;;;;3.77;3.50;;;;;;;;;;5057551;28;20388;-80
2023/03/20 03:41:10;;;;;;;3.63;3.40;;;;;;;;;;5057381;28;20385;-80
2023/03/20 03:43:39;;;;;;;3.55;3.25;;;;;;;;;;5057470;28;20969;-79
2023/03/20 03:46:20;;;;;;;3.17;2.97;;;;;;;;;;5056978;28;20539;-80
2023/03/20 03:48:49;;;;;;;3.58;3.28;;;;;;;;;;5057509;28;20385;-80
2023/03/20 03:51:22;;;;;;;3.28;3.08;;;;;;;;;;5056985;28;20907;-80
2023/03/20 03:53:55;;;;;;;3.30;3.10;;;;;;;;;;5057345;28;20423;-80
2023/03/20 03:56:23;;;;;;;3.50;2.90;;;;;;;;;;5057001;28;20433;-80
2023/03/20 03:58:52;;;;;;;3.20;3.00;;;;;;;;;;5053719;28;20468;-80
2023/03/20 04:01:18;;;;;;;3.35;3.08;;;;;;;;;;5047664;28;20383;-79
2023/03/20 04:03:52;;;;;;;3.22;3.03;;;;;;;;;;5054181;28;20418;-80
2023/03/20 04:06:20;;;;;;;3.10;2.90;;;;;;;;;;5051233;28;20409;-80
2023/03/20 04:08:46;;;;;;;3.22;2.92;;;;;;;;;;5054342;28;20727;-80
2023/03/20 04:11:16;;;;;;;2.55;2.45;;;;;;;;;;5054012;28;20381;-80
2023/03/20 04:13:42;;;;;;;2.80;2.60;;;;;;;;;;5040613;28;20420;-79
2023/03/20 04:16:15;;;;;;;4.07;3.78;;;;;;;;;;5050370;28;20409;-80
2023/03/20 04:18:41;;;;;;;3.93;3.63;;;;;;;;;;5053557;28;20393;-80
2023/03/20 04:21:07;;;;;;;3.60;3.40;;;;;;;;;;5053810;28;20754;-80
2023/03/20 04:23:33;;;;;;;3.10;2.90;;;;;;;;;;5053452;28;20484;-79
2023/03/20 04:26:00;;;;;;;3.22;2.75;;;;;;;;;;5053239;28;20401;-80
2023/03/20 04:28:26;;;;;;;3.17;2.97;;;;;;;;;;5053674;28;20488;-80
2023/03/20 04:30:53;;;;;;;4.20;3.00;;;;;;;;;;5053383;28;20867;-80
2023/03/20 04:33:19;;;;;;;2.60;2.50;;;;;;;;;;5053372;28;20476;-80
2023/03/20 04:35:45;;;;;;;3.00;2.80;;;;;;;;;;5049616;28;20802;-80
2023/03/20 04:38:12;;;;;;;2.70;2.53;;;;;;;;;;5043696;28;20400;-80
2023/03/20 04:40:38;;;;;;;3.22;3.03;;;;;;;;;;5042532;28;20418;-80
2023/03/20 04:43:04;;;;;;;2.92;2.65;;;;;;;;;;5052556;28;20464;-80
2023/03/20 04:45:30;;;;;;;2.80;2.60;;;;;;;;;;5052755;28;20381;-77
2023/03/20 04:47:56;;;;;;;2.38;2.28;;;;;;;;;;5052856;28;20400;-77
2023/03/20 04:50:22;;;;;;;2.70;2.50;;;;;;;;;;5052415;28;20867;-78
2023/03/20 04:52:48;;;;;;;2.45;2.30;;;;;;;;;;5052707;28;20396;-78
2023/03/20 04:55:14;;;;;;;2.60;2.40;;;;;;;;;;5052514;28;20385;-78
2023/03/20 04:57:40;;;;;;;2.35;2.15;;;;;;;;;;5053351;28;20451;-78
2023/03/20 05:00:07;;;;;;;2.58;2.38;;;;;;;;;;5051422;28;20409;-78
2023/03/20 05:02:33;;;;;;;2.80;2.60;;;;;;;;;;5052865;28;20504;-79
2023/03/20 05:04:59;;;;;;;3.53;3.22;;;;;;;;;;5052450;28;20476;-78
2023/03/20 05:07:25;;;;;;;3.50;3.20;;;;;;;;;;5052167;28;20374;-78
2023/03/20 05:09:51;;;;;;;3.42;3.13;;;;;;;;;;5052401;28;20874;-78
2023/03/20 05:12:17;;;;;;;3.40;3.05;;;;;;;;;;5052109;28;20468;-78
2023/03/20 05:14:43;;;;;;;3.17;2.97;;;;;;;;;;5052455;28;20389;-79
2023/03/20 05:17:09;;;;;;;3.08;2.88;;;;;;;;;;5051863;28;20435;-79
2023/03/20 05:19:35;;;;;;;2.70;2.50;;;;;;;;;;5047348;28;20866;-78
2023/03/20 05:22:01;;;;;;;3.10;2.90;;;;;;;;;;5051033;28;20505;-78
2023/03/20 05:24:28;;;;;;;2.83;2.63;;;;;;;;;;5031872;28;20887;-79
2023/03/20 05:26:54;;;;;;;3.00;2.80;;;;;;;;;;5044318;28;20920;-79
2023/03/20 05:29:20;;;;;;;3.13;2.92;;;;;;;;;;5041308;28;20460;-78
2023/03/20 05:31:46;;;;;;;3.58;3.28;;;;;;;;;;5050843;28;20389;-79
2023/03/20 05:34:12;;;;;;;3.95;3.22;;;;;;;;;;5052697;28;20397;-78
2023/03/20 05:36:38;;;;;;;3.97;3.67;;;;;;;;;;5053601;28;20429;-78
2023/03/20 05:39:05;;;;;;;3.70;3.50;;;;;;;;;;5033553;28;20389;-78
2023/03/20 05:41:31;;;;;;;3.83;3.53;;;;;;;;;;5051519;28;20385;-79
2023/03/20 05:43:57;;;;;;;3.22;3.03;;;;;;;;;;5050304;28;20439;-79
2023/03/20 05:46:23;;;;;;;3.73;3.30;;;;;;;;;;5051116;28;20573;-79
2023/03/20 05:48:49;;;;;;;3.88;3.60;;;;;;;;;;5050763;28;20468;-79
2023/03/20 05:51:15;;;;;;;3.70;3.50;;;;;;;;;;5050968;28;20373;-79
2023/03/20 05:53:41;;;;;;;3.92;3.63;;;;;;;;;;5051234;28;20412;-79
2023/03/20 05:56:07;;;;;;;4.30;4.00;;;;;;;;;;5047130;28;20464;-78
2023/03/20 05:58:35;;;;;;;4.35;4.05;;;;;;;;;;5032867;28;20874;-79
2023/03/20 06:01:01;;;;;;;4.63;4.32;;;;;;;;;;5049236;28;20406;-79
2023/03/20 06:03:27;;;;;;;3.92;3.63;;;;;;;;;;5048008;28;20425;-79
2023/03/20 06:05:53;;;;;;;4.03;3.72;;;;;;;;;;5050485;28;20377;-79
2023/03/20 06:08:19;;;;;;;4.32;3.92;;;;;;;;;;5040375;28;20413;-79
2023/03/20 06:10:45;;;;;;;5.22;4.82;;;;;;;;;;5050952;28;20373;-79
2023/03/20 06:13:11;;;;;;;5.60;5.20;;;;;;;;;;5051480;28;20798;-80
2023/03/20 06:15:37;;;;;;;5.32;4.93;;;;;;;;;;5051276;28;20377;-79
2023/03/20 06:18:03;;;;;;;6.67;6.07;;;;;;;;;;5049934;28;20385;-79
2023/03/20 06:20:30;;;;;;;7.18;6.57;;;;;;;;;;5041094;28;20385;-79
2023/03/20 06:22:56;;;;;;;7.72;7.13;;;;;;;;;;5051446;28;20456;-79
2023/03/20 06:25:22;;;;;;;7.97;7.30;;;;;;;;;;5049809;28;20895;-78
2023/03/20 06:27:48;;;;;;;8.30;7.60;;;;;;;;;;5050745;28;20413;-79
2023/03/20 06:30:15;;;;;;;7.70;7.10;;;;;;;;;;5050373;28;20377;-78
2023/03/20 06:32:41;;;;;;;7.95;7.25;;;;;;;;;;5049658;28;20393;-79
2023/03/20 06:35:08;;;;;;;7.45;6.85;;;;;;;;;;5050419;28;20393;-78
2023/03/20 06:37:35;;;;;;;7.43;6.82;;;;;;;;;;5050692;28;20381;-79
2023/03/20 06:40:01;;;;;;;7.40;6.80;;;;;;;;;;5051080;28;20385;-79
2023/03/20 06:42:27;;;;;;;7.50;6.85;;;;;;;;;;5051032;28;20496;-78
2023/03/20 06:44:53;;;;;;;7.18;6.68;;;;;;;;;;5050469;28;20444;-78
2023/03/20 06:47:19;;;;;;;6.60;6.00;;;;;;;;;;5045280;28;20481;-78
2023/03/20 06:49:45;;;;;;;6.53;6.03;;;;;;;;;;5050265;28;21109;-79
2023/03/20 06:52:16;;;;;;;5.53;5.13;;;;;;;;;;5049365;28;20421;-79
2023/03/20 06:54:42;;;;;;;4.38;4.03;;;;;;;;;;5049723;28;20393;-78
2023/03/20 06:57:08;;;;;;;3.80;3.50;;;;;;;;;;5049151;28;20439;-78
2023/03/20 06:59:34;;;;;;;3.63;3.42;;;;;;;;;;5050160;28;20758;-78
2023/03/20 07:02:00;;;;;;;3.75;3.45;;;;;;;;;;5042591;28;20504;-78
2023/03/20 07:04:26;;;;;;;3.83;3.53;;;;;;;;;;5049344;28;20388;-78
2023/03/20 07:06:52;;;;;;;3.95;3.65;;;;;;;;;;5049797;28;20393;-78
2023/03/20 07:09:18;;;;;;;3.30;3.10;;;;;;;;;;5049909;28;20742;-78
2023/03/20 07:11:44;;;;;;;3.88;3.65;;;;;;;;;;5041405;28;20385;-79
2023/03/20 07:14:11;;;;;;;3.88;3.58;;;;;;;;;;5049971;28;20423;-78
2023/03/20 07:16:37;;;;;;;4.15;3.75;;;;;;;;;;5049701;28;20385;-78
2023/03/20 07:19:03;;;;;;;4.25;3.95;;;;;;;;;;5046648;28;20392;-78
2023/03/20 07:21:29;;;;;;;3.80;3.53;;;;;;;;;;5049639;28;20494;-78
2023/03/20 07:23:55;;;;;;;4.45;4.05;;;;;;;;;;5049364;28;20793;-78
2023/03/20 07:26:21;;;;;;;3.90;3.60;;;;;;;;;;5049643;28;20396;-78
2023/03/20 07:28:47;;;;;;;4.20;3.90;;;;;;;;;;5049701;28;20439;-78
2023/03/20 07:31:23;;;;;;;5.07;4.40;;;;;;;;;;5049747;28;20460;-78
2023/03/20 07:33:49;;;;;;;5.43;5.03;;;;;;;;;;5051771;28;20435;-78
2023/03/20 07:36:15;;;;;;;5.70;5.30;;;;;;;;;;5049261;28;20393;-79
2023/03/20 07:38:41;;;;;;;5.50;5.10;;;;;;;;;;5053623;28;20409;-78
2023/03/20 07:41:07;;;;;;;5.22;4.82;;;;;;;;;;5053513;28;20754;-78
2023/03/20 07:43:34;;;;;;;5.20;4.80;;;;;;;;;;5053502;28;20401;-78
2023/03/20 07:46:03;;;;;;;5.22;4.82;;;;;;;;;;5053381;28;20839;-78
2023/03/20 07:48:29;;;;;;;5.40;5.00;;;;;;;;;;5053558;28;20793;-77
2023/03/20 07:50:55;;;;;;;5.63;5.13;;;;;;;;;;5053254;28;20373;-78
2023/03/20 07:53:21;;;;;;;5.20;4.85;;;;;;;;;;5053362;28;20386;-78
2023/03/20 07:55:47;;;;;;;5.25;4.75;;;;;;;;;;5053038;28;20746;-79
2023/03/20 07:58:13;;;;;;;4.90;4.40;;;;;;;;;;5053131;28;20388;-79
2023/03/20 08:00:40;;;;;;;5.10;4.70;;;;;;;;;;5053104;28;20456;-78
2023/03/20 08:03:06;;;;;;;4.73;4.37;;;;;;;;;;5049571;28;20416;-78
2023/03/20 08:05:32;;;;;;;4.60;4.20;;;;;;;;;;5053049;28;20381;-78
2023/03/20 08:07:58;;;;;;;4.63;4.32;;;;;;;;;;5052392;28;20829;-79
2023/03/20 08:10:24;;;;;;;5.00;4.60;;;;;;;;;;5046760;28;20465;-78
2023/03/20 08:12:50;;;;;;;5.25;4.75;;;;;;;;;;5049693;28;20379;-78
2023/03/20 08:15:16;;;;;;;5.00;4.60;;;;;;;;;;5050976;28;20386;-78
2023/03/20 08:17:43;;;;;;;4.97;4.57;;;;;;;;;;5052913;28;20401;-78
2023/03/20 08:20:09;;;;;;;4.85;4.50;;;;;;;;;;5052572;28;20381;-79
2023/03/20 08:22:35;;;;;;;4.45;4.15;;;;;;;;;;5052531;28;20405;-78
2023/03/20 08:25:02;;;;;;;4.80;4.40;;;;;;;;;;5034588;28;20896;-78
2023/03/20 08:27:28;;;;;;;4.50;4.10;;;;;;;;;;5053067;28;20381;-78
2023/03/20 08:29:54;;;;;;;4.63;4.28;;;;;;;;;;5052607;28;20396;-78
2023/03/20 08:32:20;;;;;;;5.07;4.68;;;;;;;;;;5052838;28;20412;-79
2023/03/20 08:34:46;;;;;;;5.05;4.65;;;;;;;;;;5052295;28;20381;-79
2023/03/20 08:37:12;;;;;;;5.03;4.63;;;;;;;;;;5052932;28;20859;-78
2023/03/20 08:39:38;;;;;;;4.75;4.35;;;;;;;;;;5052606;28;20424;-79
2023/03/20 08:42:05;;;;;;;4.15;3.85;;;;;;;;;;5052908;28;20459;-80
2023/03/20 08:44:31;;;;;;;4.40;4.00;;;;;;;;;;5050326;28;20377;-80
2023/03/20 08:46:57;;;;;;;4.40;4.10;;;;;;;;;;5049434;28;20392;-80
2023/03/20 08:49:23;;;;;;;4.05;3.75;;;;;;;;;;5052702;28;20385;-80
2023/03/20 08:51:49;;;;;;;3.90;3.60;;;;;;;;;;5052690;28;20385;-80
2023/03/20 08:54:17;;;;;;;3.90;3.60;;;;;;;;;;5054368;28;20435;-79
2023/03/20 08:56:43;;;;;;;3.92;3.63;;;;;;;;;;5052659;28;20409;-80
2023/03/20 08:59:09;;;;;;;4.03;3.72;;;;;;;;;;5053744;28;20467;-78
2023/03/20 09:01:35;;;;;;;3.47;3.17;;;;;;;;;;5060032;28;20374;-79
2023/03/20 09:04:01;;;;;;;3.20;3.00;;;;;;;;;;5055400;28;20369;-79
2023/03/20 09:06:27;;;;;;;3.33;3.10;;;;;;;;;;5054325;28;20464;-79
2023/03/20 09:08:55;;;;;;;3.22;3.03;;;;;;;;;;5053841;28;20783;-80
2023/03/20 09:11:21;;;;;;;3.17;2.97;;;;;;;;;;5048629;28;20369;-80
2023/03/20 09:13:47;;;;;;;2.72;2.53;;;;;;;;;;5053038;28;20439;-80
2023/03/20 09:16:13;;;;;;;2.08;1.98;;;;;;;;;;5052614;28;20394;-80
2023/03/20 09:18:39;;;;;;;1.92;1.73;;;;;;;;;;5052709;28;20457;-80
2023/03/20 09:21:05;;;;;;;1.67;1.40;;;;;;;;;;5052629;28;21095;-80
2023/03/20 09:23:31;;;;;;;1.65;1.40;;;;;;;;;;5052639;28;20420;-80
2023/03/20 09:25:58;;;;;;;1.55;1.40;;;;;;;;;;5052435;28;20425;-80
2023/03/20 09:28:24;;;;;;;1.20;1.00;;;;;;;;;;5043610;28;20407;-80
2023/03/20 09:30:54;;;;;;;1.17;1.08;;;;;;;;;;5049960;28;20381;-80
2023/03/20 09:33:20;;;;;;;1.33;1.23;;;;;;;;;;5052203;28;20750;-80
2023/03/20 09:35:46;;;;;;;1.60;1.50;;;;;;;;;;5051987;28;20385;-80
2023/03/20 09:38:13;;;;;;;1.73;1.63;;;;;;;;;;5052376;28;20416;-80
2023/03/20 09:40:52;;;;;;;1.92;1.83;;;;;;;;;;5052413;28;20755;-80
2023/03/20 09:43:19;;;;;;;1.98;1.80;;;;;;;;;;5052053;28;20416;-80
2023/03/20 09:45:52;;;;;;;1.65;1.50;;;;;;;;;;5051957;28;20900;-80
2023/03/20 09:48:38;;;;;;;1.80;1.33;;;;;;;;;;5052101;28;20457;-80
2023/03/20 09:51:14;;;;;;;1.40;1.30;;;;;;;;;;5051872;28;20388;-80
2023/03/20 09:53:42;;;;;;;2.80;1.63;;;;;;;;;;5051867;28;20396;-80
2023/03/20 09:56:17;;;;;;;1.00;1.00;;;;;;;;;;5050635;28;20401;-80
2023/03/20 09:58:44;;;;;;;1.00;0.90;;;;;;;;;;5051842;28;20472;-80
2023/03/20 10:01:13;;;;;;;1.07;0.97;;;;;;;;;;5051699;28;20389;-80
2023/03/20 10:03:43;;;;;;;1.38;0.90;;;;;;;;;;5051668;28;20417;-80
2023/03/20 10:06:12;;;;;;;0.50;0.50;;;;;;;;;;5051576;28;20381;-80
2023/03/20 10:08:39;;;;;;;0.90;0.38;;;;;;;;;;5048488;28;20369;-80
2023/03/20 10:11:15;;;;;;;0.40;0.40;;;;;;;;;;5049529;28;20405;-80
2023/03/20 10:13:40;;;;;;;0.38;0.35;;;;;;;;;;5038137;28;20369;-80
2023/03/20 10:16:10;;;;;;;0.30;0.30;;;;;;;;;;5051562;28;20440;-80
2023/03/20 10:18:38;;;;;;;0.57;0.35;;;;;;;;;;5043773;28;20385;-80
2023/03/20 10:21:05;;;;;;;0.60;0.50;;;;;;;;;;5033563;28;20447;-80
2023/03/20 10:23:43;;;;;;;0.90;0.40;;;;;;;;;;5051255;28;20409;-79
2023/03/20 10:26:11;;;;;;;1.40;0.33;;;;;;;;;;5038625;28;20377;-80
2023/03/20 10:28:46;;;;;;;0.50;0.43;;;;;;;;;;5051483;28;20381;-79
2023/03/20 10:31:22;;;;;;;1.23;0.43;;;;;;;;;;5047515;28;20409;-79
2023/03/20 10:33:47;;;;;;;0.47;0.47;;;;;;;;;;5047770;28;20468;-79
2023/03/20 10:36:16;;;;;;;0.50;0.30;;;;;;;;;;5051018;28;20792;-79
2023/03/20 10:39:01;;;;;;;0.60;0.50;;;;;;;;;;5050969;28;20431;-79
2023/03/20 10:41:33;;;;;;;0.57;0.50;;;;;;;;;;5050917;28;20447;-79
2023/03/20 10:44:00;;;;;;;1.60;0.50;;;;;;;;;;5050246;28;20958;-79
2023/03/20 10:46:28;;;;;;;0.82;0.43;;;;;;;;;;5047908;28;20385;-79
2023/03/20 10:49:03;;;;;;;0.40;0.40;;;;;;;;;;5035712;28;20386;-79
2023/03/20 10:51:49;;;;;;;1.05;0.50;;;;;;;;;;5039884;28;20431;-79
2023/03/20 10:54:18;;;;;;;0.50;0.40;;;;;;;;;;5035632;28;20468;-80
2023/03/20 10:56:47;;;;;;;0.30;0.30;;;;;;;;;;5036781;28;20776;-79
2023/03/20 10:59:13;;;;;;;0.68;0.57;;;;;;;;;;5032323;28;20935;-79
2023/03/20 11:01:39;;;;;;;0.50;0.50;;;;;;;;;;5034964;28;20422;-79
2023/03/20 11:04:06;;;;;;;0.43;0.40;;;;;;;;;;5033115;28;20403;-79
2023/03/20 11:06:33;;;;;;;0.90;0.50;;;;;;;;;;5031741;28;20841;-80
2023/03/20 11:09:10;;;;;;;0.60;0.60;;;;;;;;;;5043945;28;20475;-78
2023/03/20 11:11:38;;;;;;;0.60;0.40;;;;;;;;;;5050450;28;20380;-80
2023/03/20 11:14:17;;;;;;;0.70;0.70;;;;;;;;;;5051429;28;20712;-79
2023/03/20 11:16:47;;;;;;;0.90;0.75;;;;;;;;;;5043309;28;20371;-79
2023/03/20 11:19:13;;;;;;;0.80;0.57;;;;;;;;;;5023754;28;20847;-79
2023/03/20 11:21:50;;;;;;;0.50;0.40;;;;;;;;;;5042681;28;20441;-79
2023/03/20 11:24:34;;;;;;;0.68;0.68;;;;;;;;;;5045583;28;20512;-79
2023/03/20 11:27:11;;;;;;;0.50;0.50;;;;;;;;;;5050434;28;20361;-79
2023/03/20 11:29:39;;;;;;;0.50;0.50;;;;;;;;;;5051028;28;20409;-79
2023/03/20 11:32:19;;;;;;;0.63;0.50;;;;;;;;;;5045490;28;20381;-80
2023/03/20 11:34:46;;;;;;;0.57;0.57;;;;;;;;;;5041713;28;20373;-79
2023/03/20 11:37:24;;;;;;;1.20;0.50;;;;;;;;;;5032071;28;20383;-79
2023/03/20 11:39:57;;;;;;;0.70;0.52;;;;;;;;;;5043903;28;20373;-79
2023/03/20 11:42:24;;;;;;;0.90;0.50;;;;;;;;;;5038986;28;20410;-79
2023/03/20 11:44:56;;;;;;;0.50;0.50;;;;;;;;;;5039451;28;20390;-79
2023/03/20 11:47:24;;;;;;;0.52;0.50;;;;;;;;;;5035786;28;20375;-80
2023/03/20 11:49:55;;;;;;;1.08;0.98;;;;;;;;;;5033928;28;20372;-79
2023/03/20 11:52:31;;;;;;;1.38;0.68;;;;;;;;;;5032811;28;20383;-79
2023/03/20 11:54:58;;;;;;;0.93;0.60;;;;;;;;;;5030754;28;20394;-79
2023/03/20 11:57:35;;;;;;;0.90;0.80;;;;;;;;;;5052899;28;20463;-79
2023/03/20 12:00:21;;;;;;;1.40;0.60;;;;;;;;;;5053314;28;20393;-80
2023/03/20 12:02:47;;;;;;;1.00;0.63;;;;;;;;;;5053539;28;20505;-79
2023/03/20 12:05:34;;;;;;;1.10;1.00;;;;;;;;;;5048074;28;20424;-79
2023/03/20 12:08:03;;;;;;;0.95;0.75;;;;;;;;;;5049191;28;20381;-79
2023/03/20 12:10:32;;;;;;;1.40;1.00;;;;;;;;;;5053371;28;20885;-80
2023/03/20 12:13:21;;;;;;;1.52;0.93;;;;;;;;;;5051863;28;20858;-79
2023/03/20 12:15:50;;;;;;;2.05;0.60;;;;;;;;;;5051218;28;20389;-79
2023/03/20 12:18:25;;;;;;;0.60;0.60;;;;;;;;;;5051316;28;20384;-79
2023/03/20 12:20:57;;;;;;;1.25;0.60;;;;;;;;;;5049925;28;20377;-79
2023/03/20 12:23:31;;;;;;;0.75;0.60;;;;;;;;;;5053466;28;20405;-79
2023/03/20 12:26:01;;;;;;;0.67;0.50;;;;;;;;;;5053664;28;20385;-79
2023/03/20 12:28:30;;;;;;;0.60;0.60;;;;;;;;;;5056232;28;20382;-79
2023/03/20 12:31:00;;;;;;;1.10;0.70;;;;;;;;;;5055482;28;20378;-79
2023/03/20 12:34:08;;;;;;;1.10;0.60;;;;;;;;;;5054572;28;20386;-80
2023/03/20 12:36:36;;;;;;;0.80;0.70;;;;;;;;;;4976406;28;20404;-79
2023/03/20 12:39:04;;;;;;;2.15;0.80;;;;;;;;;;4968167;28;20384;-79
2023/03/20 12:41:40;;;;;;;1.20;0.98;;;;;;;;;;5010686;28;20750;-79
2023/03/20 12:44:09;;;;;;;0.77;0.73;;;;;;;;;;5021924;28;20772;-79
2023/03/20 12:46:44;;;;;;;1.60;0.60;;;;;;;;;;5040655;28;20418;-79
2023/03/20 12:49:21;;;;;;;0.88;0.70;;;;;;;;;;5036940;28;20399;-79
2023/03/20 12:51:57;;;;;;;1.17;0.70;;;;;;;;;;5034817;28;20395;-79
2023/03/20 12:54:26;;;;;;;0.80;0.60;;;;;;;;;;5035264;28;20425;-79
2023/03/20 12:57:05;;;;;;;0.70;0.70;;;;;;;;;;5050678;28;20412;-79
2023/03/20 12:59:53;;;;;;;0.93;0.70;;;;;;;;;;5043801;28;20381;-79
2023/03/20 13:02:28;;;;;;;0.60;0.60;;;;;;;;;;5043605;28;20417;-79
2023/03/20 13:05:13;;;;;;;1.27;0.60;;;;;;;;;;5032353;28;20878;-80
2023/03/20 13:08:05;;;;;;;0.60;0.60;;;;;;;;;;5033376;28;20890;-79
2023/03/20 13:10:34;;;;;;;1.85;0.63;;;;;;;;;;5025951;28;20920;-79
2023/03/20 13:13:10;;;;;;;1.27;0.60;;;;;;;;;;5042155;28;20410;-79
2023/03/20 13:15:42;;;;;;;0.60;0.60;;;;;;;;;;5048644;28;20709;-79
2023/03/20 13:18:14;;;;;;;1.25;0.70;;;;;;;;;;5041812;28;20390;-79
2023/03/20 13:20:50;;;;;;;2.97;0.90;;;;;;;;;;5035712;28;20396;-80
2023/03/20 13:23:26;;;;;;;0.95;0.60;;;;;;;;;;5041768;28;20414;-79
2023/03/20 13:25:52;;;;;;;1.75;1.00;;;;;;;;;;5032051;28;20764;-79
2023/03/20 13:28:21;;;;;;;1.02;0.57;;;;;;;;;;5032866;28;20721;-79
2023/03/20 13:31:00;;;;;;;0.80;0.70;;;;;;;;;;5042273;28;20379;-79
2023/03/20 13:33:38;;;;;;;0.70;0.60;;;;;;;;;;5032467;28;20406;-79
2023/03/20 13:36:07;;;;;;;0.60;0.60;;;;;;;;;;5032365;28;20388;-79
2023/03/20 13:38:35;;;;;;;1.30;0.43;;;;;;;;;;5032397;28;20398;-80
2023/03/20 13:41:02;;;;;;;0.50;0.50;;;;;;;;;;5023195;28;20398;-80
2023/03/20 13:43:34;;;;;;;0.82;0.55;;;;;;;;;;5024052;28;20411;-77
2023/03/20 13:46:07;;;;;;;0.65;0.50;;;;;;;;;;5036090;28;20449;-79
2023/03/20 13:48:37;;;;;;;1.35;0.50;;;;;;;;;;5043900;28;20371;-79
2023/03/20 13:51:22;;;;;;;0.80;0.50;;;;;;;;;;5032127;28;20379;-79
2023/03/20 13:53:57;;;;;;;0.67;0.67;;;;;;;;;;5032090;28;20462;-79
2023/03/20 13:56:41;;;;;;;1.30;0.80;;;;;;;;;;5037526;28;20882;-80
2023/03/20 13:59:26;;;;;;;1.75;0.90;;;;;;;;;;5051967;28;20378;-80
2023/03/20 14:02:07;;;;;;;1.47;1.07;;;;;;;;;;5051624;28;20377;-79
2023/03/20 14:04:33;;;;;;;1.00;0.90;;;;;;;;;;5051717;28;20416;-79
2023/03/20 14:06:59;;;;;;;1.00;0.85;;;;;;;;;;5044948;28;20382;-80
2023/03/20 14:09:35;;;;;;;0.90;0.50;;;;;;;;;;5051726;28;20377;-80
2023/03/20 14:12:06;;;;;;;0.43;0.43;;;;;;;;;;5051534;28;20385;-80
2023/03/20 14:14:40;;;;;;;1.02;0.60;;;;;;;;;;5051726;28;20774;-79
2023/03/20 14:17:09;;;;;;;1.20;0.55;;;;;;;;;;5048692;28;20763;-82
2023/03/20 14:19:36;;;;;;;0.40;0.40;;;;;;;;;;5043369;28;20381;-78
2023/03/20 14:22:03;;;;;;;0.40;0.40;;;;;;;;;;5043750;28;20570;-78
2023/03/20 14:24:29;;;;;;;0.50;0.50;;;;;;;;;;5046931;28;20381;-78
2023/03/20 14:26:57;;;;;;;0.90;0.50;;;;;;;;;;5048344;28;20389;-77
2023/03/20 14:29:31;;;;;;;0.33;0.30;;;;;;;;;;5044173;28;20371;-78
2023/03/20 14:32:12;;;;;;;0.50;0.47;;;;;;;;;;5039790;28;20880;-79
2023/03/20 14:34:57;;;;;;;0.60;0.50;;;;;;;;;;5043296;28;20744;-78
2023/03/20 14:37:35;;;;;;;1.88;0.50;;;;;;;;;;5047901;28;20383;-79
2023/03/20 14:40:07;;;;;;;1.00;0.50;;;;;;;;;;5035141;28;20427;-77
2023/03/20 14:42:36;;;;;;;0.60;0.45;;;;;;;;;;5050962;28;20755;-76
2023/03/20 14:45:20;;;;;;;1.45;1.15;;;;;;;;;;5044920;28;20416;-78
2023/03/20 14:48:02;;;;;;;1.20;0.73;;;;;;;;;;5050937;28;20382;-78
2023/03/20 14:50:31;;;;;;;0.60;0.50;;;;;;;;;;5051120;28;20381;-78
2023/03/20 14:53:00;;;;;;;0.90;0.47;;;;;;;;;;5050960;28;20793;-78
2023/03/20 14:55:29;;;;;;;0.57;0.43;;;;;;;;;;5051075;28;20392;-78
2023/03/20 14:57:55;;;;;;;0.50;0.40;;;;;;;;;;5050663;28;20409;-77
2023/03/20 15:00:23;;;;;;;0.63;0.47;;;;;;;;;;5017113;28;20952;-78